sensor_id;sensor_type;location;lat;lon;timestamp;pressure;altitude;pressure_sealevel;temperature;humidity
19108;BME280;9686;48.832;9.126;2023-02-22T00:00:35;98089.88;;;8.06;nan
19108;BME280;9686;48.832;9.126;2023-02-22T00:03:26;98082.94;;;7.84;nan
19108;BME280;9686;48.832;9.126;2023-02-22T00:05:57;98076.81;;;7.71;nan
19108;BME280;9686;48.832;9.126;2023-02-22T00:08:26;98075.91;;;7.58;nan
19108;BME280;9686;48.832;9.126;2023-02-22T00:10:58;98076.78;;;7.60;nan
19108;BME280;9686;48.832;9.126;2023-02-22T00:13:24;98079.38;;;7.62;nan
19108;BME280;9686;48.832;9.126;2023-02-22T00:15:53;98080.34;;;7.97;nan
19108;BME280;9686;48.832;9.126;2023-02-22T00:18:18;98078.59;;;7.93;nan
19108;BME280;9686;48.832;9.126;2023-02-22T00:20:44;98071.72;;;8.08;nan
19108;BME280;9686;48.832;9.126;2023-02-22T00:23:15;98067.34;;;7.84;nan
19108;BME280;9686;48.832;9.126;2023-02-22T00:25:43;98069.03;;;7.79;nan
19108;BME280;9686;48.832;9.126;2023-02-22T00:28:09;98066.41;;;7.63;nan
19108;BME280;9686;48.832;9.126;2023-02-22T00:30:34;98066.44;;;7.74;nan
19108;BME280;9686;48.832;9.126;2023-02-22T00:33:00;98059.56;;;7.94;nan
19108;BME280;9686;48.832;9.126;2023-02-22T00:35:27;98053.47;;;7.77;nan
19108;BME280;9686;48.832;9.126;2023-02-22T00:37:55;98062.13;;;7.74;nan
19108;BME280;9686;48.832;9.126;2023-02-22T00:40:24;98050.06;;;7.83;nan
19108;BME280;9686;48.832;9.126;2023-02-22T00:42:50;98059.56;;;7.81;nan
19108;BME280;9686;48.832;9.126;2023-02-22T00:45:18;98062.09;;;7.67;nan
19108;BME280;9686;48.832;9.126;2023-02-22T00:47:43;98054.25;;;7.50;nan
19108;BME280;9686;48.832;9.126;2023-02-22T00:50:09;98057.66;;;7.32;nan
19108;BME280;9686;48.832;9.126;2023-02-22T00:52:36;98057.69;;;7.37;nan
19108;BME280;9686;48.832;9.126;2023-02-22T00:55:02;98054.31;;;7.56;nan
19108;BME280;9686;48.832;9.126;2023-02-22T00:57:29;98050.88;;;7.71;nan
19108;BME280;9686;48.832;9.126;2023-02-22T00:59:55;98043.06;;;7.62;nan
19108;BME280;9686;48.832;9.126;2023-02-22T01:02:20;98044.75;;;7.49;nan
19108;BME280;9686;48.832;9.126;2023-02-22T01:04:45;98043.88;;;7.42;nan
19108;BME280;9686;48.832;9.126;2023-02-22T01:07:11;98048.09;;;7.21;nan
19108;BME280;9686;48.832;9.126;2023-02-22T01:09:36;98045.59;;;7.42;nan
19108;BME280;9686;48.832;9.126;2023-02-22T01:12:03;98032.59;;;7.33;nan
19108;BME280;9686;48.832;9.126;2023-02-22T01:14:29;98036.91;;;7.31;nan
19108;BME280;9686;48.832;9.126;2023-02-22T01:16:55;98036.84;;;7.16;nan
19108;BME280;9686;48.832;9.126;2023-02-22T01:19:21;98029.06;;;7.17;nan
19108;BME280;9686;48.832;9.126;2023-02-22T01:21:48;98034.22;;;7.09;nan
19108;BME280;9686;48.832;9.126;2023-02-22T01:24:15;98041.03;;;6.94;nan
19108;BME280;9686;48.832;9.126;2023-02-22T01:26:49;98034.16;;;6.96;nan
19108;BME280;9686;48.832;9.126;2023-02-22T01:29:16;98032.63;;;7.42;nan
19108;BME280;9686;48.832;9.126;2023-02-22T01:31:42;98030.06;;;7.51;nan
19108;BME280;9686;48.832;9.126;2023-02-22T01:34:10;98025.81;;;7.79;nan
19108;BME280;9686;48.832;9.126;2023-02-22T01:36:37;98024.94;;;7.79;nan
19108;BME280;9686;48.832;9.126;2023-02-22T01:39:04;98018.88;;;7.77;nan
19108;BME280;9686;48.832;9.126;2023-02-22T01:41:30;98021.47;;;7.64;nan
19108;BME280;9686;48.832;9.126;2023-02-22T01:43:55;98017.09;;;7.51;nan
19108;BME280;9686;48.832;9.126;2023-02-22T01:46:23;98016.22;;;7.41;nan
19108;BME280;9686;48.832;9.126;2023-02-22T01:51:24;98005.91;;;7.63;nan
19108;BME280;9686;48.832;9.126;2023-02-22T01:53:54;98001.56;;;7.57;nan
19108;BME280;9686;48.832;9.126;2023-02-22T01:56:22;97999.78;;;7.44;nan
19108;BME280;9686;48.832;9.126;2023-02-22T01:58:52;97993.72;;;7.33;nan
19108;BME280;9686;48.832;9.126;2023-02-22T02:01:21;97991.03;;;7.11;nan
19108;BME280;9686;48.832;9.126;2023-02-22T02:03:48;97990.16;;;7.08;nan
19108;BME280;9686;48.832;9.126;2023-02-22T02:06:15;97990.16;;;7.06;nan
19108;BME280;9686;48.832;9.126;2023-02-22T02:08:49;97988.47;;;7.15;nan
19108;BME280;9686;48.832;9.126;2023-02-22T02:11:19;97979.81;;;7.09;nan
19108;BME280;9686;48.832;9.126;2023-02-22T02:13:46;97976.38;;;7.23;nan
19108;BME280;9686;48.832;9.126;2023-02-22T02:16:11;97978.09;;;7.16;nan
19108;BME280;9686;48.832;9.126;2023-02-22T02:18:36;97974.69;;;7.31;nan
19108;BME280;9686;48.832;9.126;2023-02-22T02:30:10;97966.13;;;7.73;nan
19108;BME280;9686;48.832;9.126;2023-02-22T02:37:19;97955.75;;;8.02;nan
19108;BME280;9686;48.832;9.126;2023-02-22T02:39:52;97964.41;;;7.98;nan
19108;BME280;9686;48.832;9.126;2023-02-22T02:42:23;97960.97;;;8.11;nan
19108;BME280;9686;48.832;9.126;2023-02-22T02:44:57;97948.84;;;8.13;nan
19108;BME280;9686;48.832;9.126;2023-02-22T02:47:27;97948.84;;;8.18;nan
19108;BME280;9686;48.832;9.126;2023-02-22T02:49:59;97953.16;;;8.17;nan
19108;BME280;9686;48.832;9.126;2023-02-22T02:52:28;97944.50;;;8.20;nan
19108;BME280;9686;48.832;9.126;2023-02-22T02:54:56;97943.66;;;8.41;nan
19108;BME280;9686;48.832;9.126;2023-02-22T02:57:22;97944.53;;;8.38;nan
19108;BME280;9686;48.832;9.126;2023-02-22T02:59:49;97941.06;;;8.42;nan
19108;BME280;9686;48.832;9.126;2023-02-22T03:08:01;97930.69;;;8.38;nan
19108;BME280;9686;48.832;9.126;2023-02-22T03:10:43;97927.19;;;8.23;nan
19108;BME280;9686;48.832;9.126;2023-02-22T03:13:35;97924.56;;;8.31;nan
19108;BME280;9686;48.832;9.126;2023-02-22T03:16:30;97923.72;;;8.24;nan
19108;BME280;9686;48.832;9.126;2023-02-22T03:21:49;97922.84;;;8.25;nan
19108;BME280;9686;48.832;9.126;2023-02-22T03:24:33;97919.41;;;8.16;nan
19108;BME280;9686;48.832;9.126;2023-02-22T03:29:37;97913.34;;;8.18;nan
19108;BME280;9686;48.832;9.126;2023-02-22T03:32:06;97918.56;;;8.08;nan
19108;BME280;9686;48.832;9.126;2023-02-22T03:34:37;97912.50;;;8.02;nan
19108;BME280;9686;48.832;9.126;2023-02-22T03:37:18;97910.78;;;8.00;nan
19108;BME280;9686;48.832;9.126;2023-02-22T03:39:45;97911.66;;;8.08;nan
19108;BME280;9686;48.832;9.126;2023-02-22T03:42:16;97904.72;;;8.07;nan
19108;BME280;9686;48.832;9.126;2023-02-22T03:44:44;97908.19;;;8.00;nan
19108;BME280;9686;48.832;9.126;2023-02-22T03:47:15;97909.06;;;7.91;nan
19108;BME280;9686;48.832;9.126;2023-02-22T03:49:55;97906.47;;;7.93;nan
19108;BME280;9686;48.832;9.126;2023-02-22T03:52:24;97909.06;;;7.91;nan
19108;BME280;9686;48.832;9.126;2023-02-22T03:54:51;97908.19;;;7.95;nan
19108;BME280;9686;48.832;9.126;2023-02-22T03:57:26;97911.66;;;7.87;nan
19108;BME280;9686;48.832;9.126;2023-02-22T03:59:52;97910.78;;;7.86;nan
19108;BME280;9686;48.832;9.126;2023-02-22T04:02:18;97905.59;;;7.89;nan
19108;BME280;9686;48.832;9.126;2023-02-22T04:04:45;97911.66;;;7.81;nan
19108;BME280;9686;48.832;9.126;2023-02-22T04:07:10;97909.94;;;7.87;nan
19108;BME280;9686;48.832;9.126;2023-02-22T04:09:35;97915.13;;;7.81;nan
19108;BME280;9686;48.832;9.126;2023-02-22T04:12:01;97906.47;;;7.62;nan
19108;BME280;9686;48.832;9.126;2023-02-22T04:14:27;97911.66;;;7.68;nan
19108;BME280;9686;48.832;9.126;2023-02-22T04:16:52;97911.66;;;7.61;nan
19108;BME280;9686;48.832;9.126;2023-02-22T04:19:17;97909.91;;;7.61;nan
19108;BME280;9686;48.832;9.126;2023-02-22T04:21:42;97909.06;;;7.55;nan
19108;BME280;9686;48.832;9.126;2023-02-22T04:24:08;97902.97;;;7.51;nan
19108;BME280;9686;48.832;9.126;2023-02-22T04:26:33;97906.47;;;7.61;nan
19108;BME280;9686;48.832;9.126;2023-02-22T04:28:58;97905.56;;;7.54;nan
19108;BME280;9686;48.832;9.126;2023-02-22T04:31:24;97903.00;;;7.66;nan
19108;BME280;9686;48.832;9.126;2023-02-22T04:33:49;97905.59;;;7.69;nan
19108;BME280;9686;48.832;9.126;2023-02-22T04:36:14;97907.31;;;7.52;nan
19108;BME280;9686;48.832;9.126;2023-02-22T04:38:41;97905.56;;;7.48;nan
19108;BME280;9686;48.832;9.126;2023-02-22T04:41:06;97898.66;;;7.41;nan
19108;BME280;9686;48.832;9.126;2023-02-22T04:43:31;97903.00;;;7.82;nan
19108;BME280;9686;48.832;9.126;2023-02-22T04:45:57;97896.09;;;7.90;nan
19108;BME280;9686;48.832;9.126;2023-02-22T04:48:22;97895.22;;;7.82;nan
19108;BME280;9686;48.832;9.126;2023-02-22T04:50:47;97888.31;;;7.87;nan
19108;BME280;9686;48.832;9.126;2023-02-22T04:53:13;97897.81;;;7.77;nan
19108;BME280;9686;48.832;9.126;2023-02-22T04:55:38;97892.63;;;7.74;nan
19108;BME280;9686;48.832;9.126;2023-02-22T04:58:04;97890.91;;;7.68;nan
19108;BME280;9686;48.832;9.126;2023-02-22T05:00:29;97896.94;;;7.73;nan
19108;BME280;9686;48.832;9.126;2023-02-22T05:02:54;97893.47;;;7.71;nan
19108;BME280;9686;48.832;9.126;2023-02-22T05:05:20;97887.44;;;7.69;nan
19108;BME280;9686;48.832;9.126;2023-02-22T05:07:47;97881.38;;;7.75;nan
19108;BME280;9686;48.832;9.126;2023-02-22T05:10:13;97896.06;;;7.74;nan
19108;BME280;9686;48.832;9.126;2023-02-22T05:12:39;97892.63;;;7.77;nan
19108;BME280;9686;48.832;9.126;2023-02-22T05:15:06;97886.56;;;7.77;nan
19108;BME280;9686;48.832;9.126;2023-02-22T05:17:32;97886.56;;;7.92;nan
19108;BME280;9686;48.832;9.126;2023-02-22T05:20:03;97888.31;;;7.85;nan
19108;BME280;9686;48.832;9.126;2023-02-22T05:22:28;97886.56;;;7.80;nan
19108;BME280;9686;48.832;9.126;2023-02-22T05:24:54;97888.28;;;7.68;nan
19108;BME280;9686;48.832;9.126;2023-02-22T05:27:21;97892.63;;;7.63;nan
19108;BME280;9686;48.832;9.126;2023-02-22T05:29:46;97878.81;;;7.58;nan
19108;BME280;9686;48.832;9.126;2023-02-22T05:32:11;97881.38;;;7.75;nan
19108;BME280;9686;48.832;9.126;2023-02-22T05:34:37;97878.78;;;7.72;nan
19108;BME280;9686;48.832;9.126;2023-02-22T05:37:02;97878.78;;;7.73;nan
19108;BME280;9686;48.832;9.126;2023-02-22T05:39:28;97877.06;;;7.62;nan
19108;BME280;9686;48.832;9.126;2023-02-22T05:41:53;97874.47;;;7.65;nan
19108;BME280;9686;48.832;9.126;2023-02-22T05:44:19;97868.41;;;7.61;nan
19108;BME280;9686;48.832;9.126;2023-02-22T05:46:44;97875.34;;;7.55;nan
19108;BME280;9686;48.832;9.126;2023-02-22T05:49:09;97876.19;;;7.52;nan
19108;BME280;9686;48.832;9.126;2023-02-22T05:51:35;97864.09;;;7.62;nan
19108;BME280;9686;48.832;9.126;2023-02-22T05:54:00;97863.22;;;7.75;nan
19108;BME280;9686;48.832;9.126;2023-02-22T05:56:27;97869.28;;;7.71;nan
19108;BME280;9686;48.832;9.126;2023-02-22T05:58:53;97860.63;;;7.73;nan
19108;BME280;9686;48.832;9.126;2023-02-22T06:01:18;97868.41;;;7.67;nan
19108;BME280;9686;48.832;9.126;2023-02-22T06:03:48;97866.69;;;7.69;nan
19108;BME280;9686;48.832;9.126;2023-02-22T06:06:14;97864.97;;;7.59;nan
19108;BME280;9686;48.832;9.126;2023-02-22T06:08:40;97873.59;;;7.70;nan
19108;BME280;9686;48.832;9.126;2023-02-22T06:11:05;97863.22;;;7.67;nan
19108;BME280;9686;48.832;9.126;2023-02-22T06:13:30;97861.50;;;7.63;nan
19108;BME280;9686;48.832;9.126;2023-02-22T06:15:55;97866.66;;;7.45;nan
19108;BME280;9686;48.832;9.126;2023-02-22T06:18:21;97875.31;;;7.53;nan
19108;BME280;9686;48.832;9.126;2023-02-22T06:20:46;97873.59;;;7.51;nan
19108;BME280;9686;48.832;9.126;2023-02-22T06:23:11;97877.03;;;7.54;nan
19108;BME280;9686;48.832;9.126;2023-02-22T06:25:37;97880.53;;;7.62;nan
19108;BME280;9686;48.832;9.126;2023-02-22T06:28:02;97883.97;;;7.63;nan
19108;BME280;9686;48.832;9.126;2023-02-22T06:30:29;97877.06;;;7.66;nan
19108;BME280;9686;48.832;9.126;2023-02-22T06:32:54;97895.22;;;7.68;nan
19108;BME280;9686;48.832;9.126;2023-02-22T06:35:23;97893.50;;;7.55;nan
19108;BME280;9686;48.832;9.126;2023-02-22T06:37:49;97890.91;;;7.61;nan
19108;BME280;9686;48.832;9.126;2023-02-22T06:40:15;97884.84;;;7.72;nan
19108;BME280;9686;48.832;9.126;2023-02-22T06:42:40;97884.84;;;7.82;nan
19108;BME280;9686;48.832;9.126;2023-02-22T06:45:06;97891.75;;;7.78;nan
19108;BME280;9686;48.832;9.126;2023-02-22T06:47:31;97890.03;;;7.77;nan
19108;BME280;9686;48.832;9.126;2023-02-22T06:49:58;97894.38;;;7.81;nan
19108;BME280;9686;48.832;9.126;2023-02-22T06:52:25;97903.00;;;7.57;nan
19108;BME280;9686;48.832;9.126;2023-02-22T06:54:51;97905.59;;;7.65;nan
19108;BME280;9686;48.832;9.126;2023-02-22T06:57:17;97904.72;;;7.60;nan
19108;BME280;9686;48.832;9.126;2023-02-22T06:59:42;97898.69;;;7.82;nan
19108;BME280;9686;48.832;9.126;2023-02-22T07:02:10;97897.81;;;7.83;nan
19108;BME280;9686;48.832;9.126;2023-02-22T07:04:35;97906.47;;;7.71;nan
19108;BME280;9686;48.832;9.126;2023-02-22T07:07:00;97908.19;;;7.80;nan
19108;BME280;9686;48.832;9.126;2023-02-22T07:09:26;97902.13;;;7.99;nan
19108;BME280;9686;48.832;9.126;2023-02-22T07:11:51;97908.16;;;8.04;nan
19108;BME280;9686;48.832;9.126;2023-02-22T07:14:16;97903.84;;;8.10;nan
19108;BME280;9686;48.832;9.126;2023-02-22T07:16:42;97903.81;;;8.25;nan
19108;BME280;9686;48.832;9.126;2023-02-22T07:19:07;97908.16;;;8.24;nan
19108;BME280;9686;48.832;9.126;2023-02-22T07:21:32;97912.47;;;8.28;nan
19108;BME280;9686;48.832;9.126;2023-02-22T07:23:58;97915.97;;;8.35;nan
19108;BME280;9686;48.832;9.126;2023-02-22T07:26:24;97915.91;;;8.62;nan
19108;BME280;9686;48.832;9.126;2023-02-22T07:28:50;97912.44;;;8.51;nan
19108;BME280;9686;48.832;9.126;2023-02-22T07:31:16;97913.25;;;8.70;nan
19108;BME280;9686;48.832;9.126;2023-02-22T07:33:42;97916.75;;;8.69;nan
19108;BME280;9686;48.832;9.126;2023-02-22T07:36:07;97924.47;;;8.83;nan
19108;BME280;9686;48.832;9.126;2023-02-22T07:38:33;97925.28;;;8.97;nan
19108;BME280;9686;48.832;9.126;2023-02-22T07:40:58;97927.03;;;8.96;nan
19108;BME280;9686;48.832;9.126;2023-02-22T07:43:25;97923.53;;;9.02;nan
19108;BME280;9686;48.832;9.126;2023-02-22T07:45:54;97928.63;;;9.22;nan
19108;BME280;9686;48.832;9.126;2023-02-22T07:48:21;97923.38;;;9.31;nan
19108;BME280;9686;48.832;9.126;2023-02-22T07:50:47;97925.09;;;9.31;nan
19108;BME280;9686;48.832;9.126;2023-02-22T07:53:18;97922.31;;;9.59;nan
19108;BME280;9686;48.832;9.126;2023-02-22T07:55:44;97921.44;;;9.65;nan
19108;BME280;9686;48.832;9.126;2023-02-22T07:58:12;97922.22;;;9.75;nan
19108;BME280;9686;48.832;9.126;2023-02-22T08:00:39;97916.94;;;9.82;nan
19108;BME280;9686;48.832;9.126;2023-02-22T08:03:07;97921.31;;;9.80;nan
19108;BME280;9686;48.832;9.126;2023-02-22T08:05:35;97914.31;;;9.90;nan
19108;BME280;9686;48.832;9.126;2023-02-22T08:08:00;97922.09;;;9.93;nan
19108;BME280;9686;48.832;9.126;2023-02-22T08:10:26;97924.63;;;10.02;nan
19108;BME280;9686;48.832;9.126;2023-02-22T08:12:53;97918.53;;;10.03;nan
19108;BME280;9686;48.832;9.126;2023-02-22T08:15:40;97915.88;;;10.08;nan
19108;BME280;9686;48.832;9.126;2023-02-22T08:18:11;97911.50;;;10.11;nan
19108;BME280;9686;48.832;9.126;2023-02-22T08:20:40;97907.75;;;10.44;nan
19108;BME280;9686;48.832;9.126;2023-02-22T08:23:06;97910.19;;;10.58;nan
19108;BME280;9686;48.832;9.126;2023-02-22T08:25:32;97903.97;;;10.73;nan
19108;BME280;9686;48.832;9.126;2023-02-22T08:28:00;97901.31;;;10.77;nan
19108;BME280;9686;48.832;9.126;2023-02-22T08:30:28;97909.91;;;10.84;nan
19108;BME280;9686;48.832;9.126;2023-02-22T08:32:54;97907.16;;;10.96;nan
19108;BME280;9686;48.832;9.126;2023-02-22T08:35:20;97915.56;;;11.17;nan
19108;BME280;9686;48.832;9.126;2023-02-22T08:37:52;97912.91;;;11.23;nan
19108;BME280;9686;48.832;9.126;2023-02-22T08:40:22;97905.56;;;11.49;nan
19108;BME280;9686;48.832;9.126;2023-02-22T08:42:48;97915.19;;;11.46;nan
19108;BME280;9686;48.832;9.126;2023-02-22T08:45:14;97911.56;;;11.56;nan
19108;BME280;9686;48.832;9.126;2023-02-22T08:47:39;97914.78;;;11.74;nan
19108;BME280;9686;48.832;9.126;2023-02-22T08:50:06;97906.03;;;11.76;nan
19108;BME280;9686;48.832;9.126;2023-02-22T08:52:32;97910.50;;;12.24;nan
19108;BME280;9686;48.832;9.126;2023-02-22T08:54:59;97907.72;;;12.33;nan
19108;BME280;9686;48.832;9.126;2023-02-22T08:57:24;97907.09;;;12.65;nan
19108;BME280;9686;48.832;9.126;2023-02-22T08:59:49;97909.41;;;12.36;nan
19108;BME280;9686;48.832;9.126;2023-02-22T09:02:17;97913.97;;;12.25;nan
19108;BME280;9686;48.832;9.126;2023-02-22T09:04:44;97903.88;;;12.53;nan
19108;BME280;9686;48.832;9.126;2023-02-22T09:07:09;97915.78;;;12.68;nan
19108;BME280;9686;48.832;9.126;2023-02-22T09:09:34;97916.63;;;12.68;nan
19108;BME280;9686;48.832;9.126;2023-02-22T09:12:00;97912.88;;;12.83;nan
19108;BME280;9686;48.832;9.126;2023-02-22T09:14:26;97904.00;;;12.90;nan
19108;BME280;9686;48.832;9.126;2023-02-22T09:16:51;97905.56;;;12.98;nan
19108;BME280;9686;48.832;9.126;2023-02-22T09:19:16;97902.22;;;12.92;nan
19108;BME280;9686;48.832;9.126;2023-02-22T09:21:42;97899.44;;;13.01;nan
19108;BME280;9686;48.832;9.126;2023-02-22T09:24:07;97900.94;;;13.11;nan
19108;BME280;9686;48.832;9.126;2023-02-22T09:26:37;97901.28;;;13.38;nan
19108;BME280;9686;48.832;9.126;2023-02-22T09:29:07;97893.53;;;13.33;nan
19108;BME280;9686;48.832;9.126;2023-02-22T09:31:37;97894.53;;;12.84;nan
19108;BME280;9686;48.832;9.126;2023-02-22T09:34:04;97891.38;;;13.10;nan
19108;BME280;9686;48.832;9.126;2023-02-22T09:36:41;97891.00;;;13.30;nan
19108;BME280;9686;48.832;9.126;2023-02-22T09:39:06;97887.25;;;13.40;nan
19108;BME280;9686;48.832;9.126;2023-02-22T09:41:42;97881.84;;;13.48;nan
19108;BME280;9686;48.832;9.126;2023-02-22T09:44:46;97880.59;;;13.64;nan
19108;BME280;9686;48.832;9.126;2023-02-22T09:47:21;97881.13;;;13.78;nan
19108;BME280;9686;48.832;9.126;2023-02-22T09:50:09;97883.19;;;14.01;nan
19108;BME280;9686;48.832;9.126;2023-02-22T09:52:55;97870.50;;;14.18;nan
19108;BME280;9686;48.832;9.126;2023-02-22T09:55:52;97881.16;;;14.46;nan
19108;BME280;9686;48.832;9.126;2023-02-22T09:58:25;97868.75;;;14.53;nan
19108;BME280;9686;48.832;9.126;2023-02-22T10:00:57;97872.84;;;14.94;nan
19108;BME280;9686;48.832;9.126;2023-02-22T10:03:42;97868.06;;;15.07;nan
19108;BME280;9686;48.832;9.126;2023-02-22T10:06:14;97864.25;;;14.89;nan
19108;BME280;9686;48.832;9.126;2023-02-22T10:08:41;97869.31;;;14.95;nan
19108;BME280;9686;48.832;9.126;2023-02-22T10:25:08;97862.00;;;15.64;nan
19108;BME280;9686;48.832;9.126;2023-02-22T10:27:41;97862.13;;;15.59;nan
19108;BME280;9686;48.832;9.126;2023-02-22T10:32:42;97849.00;;;15.30;nan
19108;BME280;9686;48.832;9.126;2023-02-22T10:35:20;97844.00;;;15.50;nan
19108;BME280;9686;48.832;9.126;2023-02-22T10:37:47;97848.25;;;15.82;nan
19108;BME280;9686;48.832;9.126;2023-02-22T10:40:20;97859.78;;;15.78;nan
19108;BME280;9686;48.832;9.126;2023-02-22T10:42:47;97851.25;;;15.98;nan
19108;BME280;9686;48.832;9.126;2023-02-22T10:45:20;97849.00;;;16.12;nan
19108;BME280;9686;48.832;9.126;2023-02-22T10:47:46;97848.41;;;16.04;nan
19108;BME280;9686;48.832;9.126;2023-02-22T10:50:13;97854.88;;;15.94;nan
19108;BME280;9686;48.832;9.126;2023-02-22T10:52:39;97846.41;;;16.11;nan
19108;BME280;9686;48.832;9.126;2023-02-22T10:55:04;97848.81;;;15.92;nan
19108;BME280;9686;48.832;9.126;2023-02-22T10:57:36;97849.84;;;16.13;nan
19108;BME280;9686;48.832;9.126;2023-02-22T11:00:28;97840.66;;;15.99;nan
19108;BME280;9686;48.832;9.126;2023-02-22T11:02:59;97841.47;;;16.01;nan
19108;BME280;9686;48.832;9.126;2023-02-22T11:05:35;97835.84;;;15.86;nan
19108;BME280;9686;48.832;9.126;2023-02-22T11:10:45;97834.56;;;15.99;nan
19108;BME280;9686;48.832;9.126;2023-02-22T11:13:22;97830.56;;;16.14;nan
19108;BME280;9686;48.832;9.126;2023-02-22T11:15:50;97829.66;;;16.40;nan
19108;BME280;9686;48.832;9.126;2023-02-22T11:18:25;97828.28;;;16.28;nan
19108;BME280;9686;48.832;9.126;2023-02-22T11:21:04;97826.41;;;16.56;nan
19108;BME280;9686;48.832;9.126;2023-02-22T11:23:31;97825.47;;;16.57;nan
19108;BME280;9686;48.832;9.126;2023-02-22T11:26:22;97818.38;;;16.59;nan
19108;BME280;9686;48.832;9.126;2023-02-22T11:28:50;97821.81;;;16.86;nan
19108;BME280;9686;48.832;9.126;2023-02-22T11:31:28;97823.47;;;16.89;nan
19108;BME280;9686;48.832;9.126;2023-02-22T11:34:02;97820.03;;;16.87;nan
19108;BME280;9686;48.832;9.126;2023-02-22T11:39:20;97804.97;;;17.36;nan
19108;BME280;9686;48.832;9.126;2023-02-22T11:41:46;97806.59;;;17.16;nan
19108;BME280;9686;48.832;9.126;2023-02-22T11:44:28;97801.34;;;17.38;nan
19108;BME280;9686;48.832;9.126;2023-02-22T11:46:57;97799.75;;;17.34;nan
19108;BME280;9686;48.832;9.126;2023-02-22T11:49:36;97791.53;;;17.64;nan
19108;BME280;9686;48.832;9.126;2023-02-22T11:52:39;97803.66;;;17.47;nan
19108;BME280;9686;48.832;9.126;2023-02-22T11:55:32;97787.63;;;17.30;nan
19108;BME280;9686;48.832;9.126;2023-02-22T11:58:12;97782.25;;;17.77;nan
19108;BME280;9686;48.832;9.126;2023-02-22T12:01:38;97786.00;;;17.92;nan
19108;BME280;9686;48.832;9.126;2023-02-22T12:09:44;97772.91;;;18.10;nan
19108;BME280;9686;48.832;9.126;2023-02-22T12:15:31;97761.75;;;18.24;nan
19108;BME280;9686;48.832;9.126;2023-02-22T12:18:20;97761.03;;;17.80;nan
19108;BME280;9686;48.832;9.126;2023-02-22T12:20:56;97763.72;;;17.56;nan
19108;BME280;9686;48.832;9.126;2023-02-22T12:23:42;97767.03;;;17.40;nan
19108;BME280;9686;48.832;9.126;2023-02-22T12:26:14;97757.31;;;17.20;nan
19108;BME280;9686;48.832;9.126;2023-02-22T12:28:46;97762.75;;;17.37;nan
19108;BME280;9686;48.832;9.126;2023-02-22T12:31:29;97760.97;;;17.81;nan
19108;BME280;9686;48.832;9.126;2023-02-22T12:34:06;97761.63;;;18.46;nan
19108;BME280;9686;48.832;9.126;2023-02-22T12:36:46;97756.22;;;18.69;nan
19108;BME280;9686;48.832;9.126;2023-02-22T12:39:36;97756.66;;;18.79;nan
19108;BME280;9686;48.832;9.126;2023-02-22T12:42:11;97750.38;;;18.82;nan
19108;BME280;9686;48.832;9.126;2023-02-22T12:44:39;97751.91;;;18.67;nan
19108;BME280;9686;48.832;9.126;2023-02-22T12:47:14;97748.50;;;18.65;nan
19108;BME280;9686;48.832;9.126;2023-02-22T12:52:19;97746.03;;;18.60;nan
19108;BME280;9686;48.832;9.126;2023-02-22T12:55:02;97743.84;;;18.70;nan
19108;BME280;9686;48.832;9.126;2023-02-22T13:00:27;97742.75;;;18.75;nan
19108;BME280;9686;48.832;9.126;2023-02-22T13:05:47;97747.50;;;18.28;nan
19108;BME280;9686;48.832;9.126;2023-02-22T13:13:26;97741.00;;;18.35;nan
19108;BME280;9686;48.832;9.126;2023-02-22T13:16:24;97735.91;;;18.51;nan
19108;BME280;9686;48.832;9.126;2023-02-22T13:19:02;97747.78;;;18.02;nan
19108;BME280;9686;48.832;9.126;2023-02-22T13:21:47;97738.59;;;18.10;nan
19108;BME280;9686;48.832;9.126;2023-02-22T13:24:23;97735.44;;;18.23;nan
19108;BME280;9686;48.832;9.126;2023-02-22T13:26:58;97740.78;;;18.01;nan
19108;BME280;9686;48.832;9.126;2023-02-22T13:29:37;97740.38;;;18.10;nan
19108;BME280;9686;48.832;9.126;2023-02-22T13:37:53;97724.19;;;17.99;nan
19108;BME280;9686;48.832;9.126;2023-02-22T13:48:30;97721.16;;;17.66;nan
19108;BME280;9686;48.832;9.126;2023-02-22T13:53:40;97726.72;;;18.21;nan
19108;BME280;9686;48.832;9.126;2023-02-22T13:56:08;97726.47;;;18.06;nan
19108;BME280;9686;48.832;9.126;2023-02-22T13:58:49;97723.63;;;18.11;nan
19108;BME280;9686;48.832;9.126;2023-02-22T14:01:44;97727.97;;;17.29;nan
19108;BME280;9686;48.832;9.126;2023-02-22T14:04:23;97731.13;;;17.37;nan
19108;BME280;9686;48.832;9.126;2023-02-22T14:07:03;97728.00;;;17.49;nan
19108;BME280;9686;48.832;9.126;2023-02-22T14:09:47;97731.91;;;17.61;nan
19108;BME280;9686;48.832;9.126;2023-02-22T14:17:38;97726.22;;;17.50;nan
19108;BME280;9686;48.832;9.126;2023-02-22T14:20:19;97721.09;;;17.47;nan
19108;BME280;9686;48.832;9.126;2023-02-22T14:22:49;97723.84;;;17.44;nan
19108;BME280;9686;48.832;9.126;2023-02-22T14:25:39;97718.97;;;17.55;nan
19108;BME280;9686;48.832;9.126;2023-02-22T14:28:31;97717.72;;;17.64;nan
19108;BME280;9686;48.832;9.126;2023-02-22T14:31:13;97712.19;;;17.71;nan
19108;BME280;9686;48.832;9.126;2023-02-22T14:34:17;97720.81;;;17.75;nan
19108;BME280;9686;48.832;9.126;2023-02-22T14:37:02;97721.97;;;17.68;nan
19108;BME280;9686;48.832;9.126;2023-02-22T14:39:39;97727.16;;;17.71;nan
19108;BME280;9686;48.832;9.126;2023-02-22T14:42:24;97713.25;;;17.66;nan
19108;BME280;9686;48.832;9.126;2023-02-22T14:45:04;97720.88;;;17.73;nan
19108;BME280;9686;48.832;9.126;2023-02-22T14:50:42;97710.41;;;17.72;nan
19108;BME280;9686;48.832;9.126;2023-02-22T14:53:26;97712.78;;;17.56;nan
19108;BME280;9686;48.832;9.126;2023-02-22T14:56:01;97713.22;;;17.67;nan
19108;BME280;9686;48.832;9.126;2023-02-22T14:58:37;97709.41;;;17.74;nan
19108;BME280;9686;48.832;9.126;2023-02-22T15:01:30;97714.97;;;17.67;nan
19108;BME280;9686;48.832;9.126;2023-02-22T15:04:09;97719.03;;;17.75;nan
19108;BME280;9686;48.832;9.126;2023-02-22T15:06:40;97723.25;;;17.79;nan
19108;BME280;9686;48.832;9.126;2023-02-22T15:09:12;97719.63;;;17.82;nan
19108;BME280;9686;48.832;9.126;2023-02-22T15:11:38;97720.22;;;17.88;nan
19108;BME280;9686;48.832;9.126;2023-02-22T15:14:16;97719.28;;;17.90;nan
19108;BME280;9686;48.832;9.126;2023-02-22T15:16:47;97714.88;;;17.90;nan
19108;BME280;9686;48.832;9.126;2023-02-22T15:19:14;97717.31;;;17.95;nan
19108;BME280;9686;48.832;9.126;2023-02-22T15:21:46;97720.41;;;17.84;nan
19108;BME280;9686;48.832;9.126;2023-02-22T15:24:39;97711.72;;;17.82;nan
19108;BME280;9686;48.832;9.126;2023-02-22T15:27:06;97718.97;;;17.77;nan
19108;BME280;9686;48.832;9.126;2023-02-22T15:29:38;97717.00;;;17.82;nan
19108;BME280;9686;48.832;9.126;2023-02-22T15:32:38;97711.84;;;17.79;nan
19108;BME280;9686;48.832;9.126;2023-02-22T15:37:38;97712.06;;;17.74;nan